sensor_id;sensor_type;location;lat;lon;timestamp;P1;durP1;ratioP1;P2;durP2;ratioP2
45326;SDS011;31062;49.678;24.560;2023-02-11T00:00:49;18.65;;;10.05;;
45326;SDS011;31062;49.678;24.560;2023-02-11T00:03:35;27.23;;;12.27;;
45326;SDS011;31062;49.678;24.560;2023-02-11T00:06:23;23.65;;;10.40;;
45326;SDS011;31062;49.678;24.560;2023-02-11T00:09:09;14.63;;;8.80;;
45326;SDS011;31062;49.678;24.560;2023-02-11T00:11:55;23.10;;;10.70;;
45326;SDS011;31062;49.678;24.560;2023-02-11T00:14:40;19.65;;;9.43;;
45326;SDS011;31062;49.678;24.560;2023-02-11T00:17:26;27.05;;;11.82;;
45326;SDS011;31062;49.678;24.560;2023-02-11T00:20:11;33.85;;;16.17;;
45326;SDS011;31062;49.678;24.560;2023-02-11T00:22:57;96.95;;;27.38;;
45326;SDS011;31062;49.678;24.560;2023-02-11T00:25:43;47.50;;;19.23;;
45326;SDS011;31062;49.678;24.560;2023-02-11T00:28:29;36.47;;;14.07;;
45326;SDS011;31062;49.678;24.560;2023-02-11T00:31:16;31.65;;;12.30;;
45326;SDS011;31062;49.678;24.560;2023-02-11T00:34:03;34.70;;;12.88;;
45326;SDS011;31062;49.678;24.560;2023-02-11T00:36:49;36.47;;;14.63;;
45326;SDS011;31062;49.678;24.560;2023-02-11T00:39:36;26.40;;;12.05;;
45326;SDS011;31062;49.678;24.560;2023-02-11T00:42:22;24.20;;;11.00;;
45326;SDS011;31062;49.678;24.560;2023-02-11T00:45:08;26.95;;;12.13;;
45326;SDS011;31062;49.678;24.560;2023-02-11T00:47:54;31.40;;;13.95;;
45326;SDS011;31062;49.678;24.560;2023-02-11T00:50:39;36.00;;;14.55;;
45326;SDS011;31062;49.678;24.560;2023-02-11T00:53:24;32.85;;;14.00;;
45326;SDS011;31062;49.678;24.560;2023-02-11T00:56:11;31.50;;;13.95;;
45326;SDS011;31062;49.678;24.560;2023-02-11T00:58:56;30.38;;;13.88;;
45326;SDS011;31062;49.678;24.560;2023-02-11T01:01:42;22.65;;;12.10;;
45326;SDS011;31062;49.678;24.560;2023-02-11T01:04:28;28.92;;;13.05;;
45326;SDS011;31062;49.678;24.560;2023-02-11T01:07:13;30.25;;;12.85;;
45326;SDS011;31062;49.678;24.560;2023-02-11T01:09:59;32.42;;;13.80;;
45326;SDS011;31062;49.678;24.560;2023-02-11T01:12:46;27.67;;;13.02;;
45326;SDS011;31062;49.678;24.560;2023-02-11T01:15:32;29.13;;;11.65;;
45326;SDS011;31062;49.678;24.560;2023-02-11T01:18:18;25.40;;;11.35;;
45326;SDS011;31062;49.678;24.560;2023-02-11T01:21:06;20.48;;;10.10;;
45326;SDS011;31062;49.678;24.560;2023-02-11T01:23:51;27.50;;;10.88;;
45326;SDS011;31062;49.678;24.560;2023-02-11T01:26:38;20.65;;;10.30;;
45326;SDS011;31062;49.678;24.560;2023-02-11T01:29:23;26.75;;;11.02;;
45326;SDS011;31062;49.678;24.560;2023-02-11T01:32:11;19.23;;;9.90;;
45326;SDS011;31062;49.678;24.560;2023-02-11T01:34:58;25.80;;;11.45;;
45326;SDS011;31062;49.678;24.560;2023-02-11T01:37:43;22.23;;;9.90;;
45326;SDS011;31062;49.678;24.560;2023-02-11T01:40:30;22.40;;;9.63;;
45326;SDS011;31062;49.678;24.560;2023-02-11T01:43:15;14.40;;;8.07;;
45326;SDS011;31062;49.678;24.560;2023-02-11T01:46:03;21.20;;;9.30;;
45326;SDS011;31062;49.678;24.560;2023-02-11T01:49:10;18.02;;;8.77;;
45326;SDS011;31062;49.678;24.560;2023-02-11T01:52:01;17.38;;;8.25;;
45326;SDS011;31062;49.678;24.560;2023-02-11T01:54:52;20.80;;;8.43;;
45326;SDS011;31062;49.678;24.560;2023-02-11T01:57:59;14.82;;;8.27;;
45326;SDS011;31062;49.678;24.560;2023-02-11T02:00:49;17.65;;;8.15;;
45326;SDS011;31062;49.678;24.560;2023-02-11T02:03:35;17.45;;;8.75;;
45326;SDS011;31062;49.678;24.560;2023-02-11T02:06:27;14.35;;;7.63;;
45326;SDS011;31062;49.678;24.560;2023-02-11T02:09:22;13.15;;;7.13;;
45326;SDS011;31062;49.678;24.560;2023-02-11T02:12:12;24.63;;;9.15;;
45326;SDS011;31062;49.678;24.560;2023-02-11T02:16:00;18.42;;;8.80;;
45326;SDS011;31062;49.678;24.560;2023-02-11T02:21:21;17.42;;;8.25;;
45326;SDS011;31062;49.678;24.560;2023-02-11T02:37:02;16.00;;;8.13;;
45326;SDS011;31062;49.678;24.560;2023-02-11T02:39:52;12.93;;;6.82;;
45326;SDS011;31062;49.678;24.560;2023-02-11T02:42:37;12.73;;;7.57;;
45326;SDS011;31062;49.678;24.560;2023-02-11T02:45:25;18.92;;;8.90;;
45326;SDS011;31062;49.678;24.560;2023-02-11T02:52:02;17.70;;;7.25;;
45326;SDS011;31062;49.678;24.560;2023-02-11T03:01:12;18.80;;;9.10;;
45326;SDS011;31062;49.678;24.560;2023-02-11T03:04:20;13.48;;;7.78;;
45326;SDS011;31062;49.678;24.560;2023-02-11T03:07:26;17.75;;;7.90;;
45326;SDS011;31062;49.678;24.560;2023-02-11T03:10:30;14.02;;;7.80;;
45326;SDS011;31062;49.678;24.560;2023-02-11T03:13:19;16.90;;;7.88;;
45326;SDS011;31062;49.678;24.560;2023-02-11T03:16:10;14.50;;;7.18;;
45326;SDS011;31062;49.678;24.560;2023-02-11T03:19:01;13.15;;;7.55;;
45326;SDS011;31062;49.678;24.560;2023-02-11T03:21:50;15.20;;;7.60;;
45326;SDS011;31062;49.678;24.560;2023-02-11T03:24:37;16.25;;;7.95;;
45326;SDS011;31062;49.678;24.560;2023-02-11T03:30:21;13.80;;;8.02;;
45326;SDS011;31062;49.678;24.560;2023-02-11T03:39:24;14.35;;;8.07;;
45326;SDS011;31062;49.678;24.560;2023-02-11T03:42:14;12.70;;;7.95;;
45326;SDS011;31062;49.678;24.560;2023-02-11T03:45:05;13.05;;;7.63;;
45326;SDS011;31062;49.678;24.560;2023-02-11T03:50:46;17.58;;;8.23;;
45326;SDS011;31062;49.678;24.560;2023-02-11T03:53:34;15.88;;;7.18;;
45326;SDS011;31062;49.678;24.560;2023-02-11T03:56:23;17.10;;;9.65;;
45326;SDS011;31062;49.678;24.560;2023-02-11T03:59:13;14.65;;;8.52;;
45326;SDS011;31062;49.678;24.560;2023-02-11T04:01:59;19.75;;;8.95;;
45326;SDS011;31062;49.678;24.560;2023-02-11T04:04:45;14.90;;;8.10;;
45326;SDS011;31062;49.678;24.560;2023-02-11T04:07:31;19.20;;;8.70;;
45326;SDS011;31062;49.678;24.560;2023-02-11T04:10:17;17.17;;;9.50;;
45326;SDS011;31062;49.678;24.560;2023-02-11T04:13:02;14.02;;;8.55;;
45326;SDS011;31062;49.678;24.560;2023-02-11T04:15:48;15.52;;;8.18;;
45326;SDS011;31062;49.678;24.560;2023-02-11T04:18:33;13.23;;;7.78;;
45326;SDS011;31062;49.678;24.560;2023-02-11T04:21:19;16.50;;;8.40;;
45326;SDS011;31062;49.678;24.560;2023-02-11T04:24:04;16.15;;;7.82;;
45326;SDS011;31062;49.678;24.560;2023-02-11T04:26:50;16.92;;;8.70;;
45326;SDS011;31062;49.678;24.560;2023-02-11T04:29:35;14.70;;;7.95;;
45326;SDS011;31062;49.678;24.560;2023-02-11T04:32:20;14.23;;;8.35;;
45326;SDS011;31062;49.678;24.560;2023-02-11T04:35:06;18.65;;;8.95;;
45326;SDS011;31062;49.678;24.560;2023-02-11T04:37:52;14.05;;;8.02;;
45326;SDS011;31062;49.678;24.560;2023-02-11T04:40:38;18.67;;;9.10;;
45326;SDS011;31062;49.678;24.560;2023-02-11T04:43:24;14.90;;;8.63;;
45326;SDS011;31062;49.678;24.560;2023-02-11T04:46:09;20.63;;;9.70;;
45326;SDS011;31062;49.678;24.560;2023-02-11T04:48:55;16.60;;;8.55;;
45326;SDS011;31062;49.678;24.560;2023-02-11T04:51:41;15.73;;;9.23;;
45326;SDS011;31062;49.678;24.560;2023-02-11T04:54:32;14.38;;;8.70;;
45326;SDS011;31062;49.678;24.560;2023-02-11T04:57:17;16.63;;;8.63;;
45326;SDS011;31062;49.678;24.560;2023-02-11T05:00:03;15.70;;;7.88;;
45326;SDS011;31062;49.678;24.560;2023-02-11T05:02:50;15.43;;;8.45;;
45326;SDS011;31062;49.678;24.560;2023-02-11T05:05:39;16.15;;;8.38;;
45326;SDS011;31062;49.678;24.560;2023-02-11T05:08:25;12.80;;;7.43;;
45326;SDS011;31062;49.678;24.560;2023-02-11T05:11:15;17.58;;;8.85;;
45326;SDS011;31062;49.678;24.560;2023-02-11T05:14:05;16.17;;;9.00;;
45326;SDS011;31062;49.678;24.560;2023-02-11T05:16:51;14.32;;;8.65;;
45326;SDS011;31062;49.678;24.560;2023-02-11T05:19:37;18.05;;;9.18;;
45326;SDS011;31062;49.678;24.560;2023-02-11T05:22:22;16.75;;;9.38;;
45326;SDS011;31062;49.678;24.560;2023-02-11T05:25:08;19.05;;;9.07;;
45326;SDS011;31062;49.678;24.560;2023-02-11T05:27:53;16.90;;;8.57;;
45326;SDS011;31062;49.678;24.560;2023-02-11T05:30:39;17.55;;;8.70;;
45326;SDS011;31062;49.678;24.560;2023-02-11T05:33:24;16.55;;;9.40;;
45326;SDS011;31062;49.678;24.560;2023-02-11T05:36:10;17.10;;;9.15;;
45326;SDS011;31062;49.678;24.560;2023-02-11T05:38:57;23.02;;;10.70;;
45326;SDS011;31062;49.678;24.560;2023-02-11T05:41:42;20.13;;;10.57;;
45326;SDS011;31062;49.678;24.560;2023-02-11T05:44:28;24.50;;;10.05;;
45326;SDS011;31062;49.678;24.560;2023-02-11T05:47:13;18.65;;;9.93;;
45326;SDS011;31062;49.678;24.560;2023-02-11T05:49:59;14.60;;;8.55;;
45326;SDS011;31062;49.678;24.560;2023-02-11T05:52:45;19.25;;;10.82;;
45326;SDS011;31062;49.678;24.560;2023-02-11T05:55:30;20.98;;;10.23;;
45326;SDS011;31062;49.678;24.560;2023-02-11T05:58:16;19.40;;;10.15;;
45326;SDS011;31062;49.678;24.560;2023-02-11T06:01:02;20.92;;;10.05;;
45326;SDS011;31062;49.678;24.560;2023-02-11T06:03:47;21.27;;;10.02;;
45326;SDS011;31062;49.678;24.560;2023-02-11T06:06:35;19.88;;;10.45;;
45326;SDS011;31062;49.678;24.560;2023-02-11T06:09:20;21.33;;;10.43;;
45326;SDS011;31062;49.678;24.560;2023-02-11T06:12:06;21.60;;;10.85;;
45326;SDS011;31062;49.678;24.560;2023-02-11T06:14:52;18.45;;;10.75;;
45326;SDS011;31062;49.678;24.560;2023-02-11T06:17:37;19.48;;;10.60;;
45326;SDS011;31062;49.678;24.560;2023-02-11T06:20:22;23.55;;;10.13;;
45326;SDS011;31062;49.678;24.560;2023-02-11T06:23:08;23.23;;;11.10;;
45326;SDS011;31062;49.678;24.560;2023-02-11T06:25:54;19.48;;;10.60;;
45326;SDS011;31062;49.678;24.560;2023-02-11T06:28:39;22.00;;;11.60;;
45326;SDS011;31062;49.678;24.560;2023-02-11T06:31:26;26.88;;;12.10;;
45326;SDS011;31062;49.678;24.560;2023-02-11T06:34:12;29.90;;;16.70;;
45326;SDS011;31062;49.678;24.560;2023-02-11T06:36:57;34.45;;;16.80;;
45326;SDS011;31062;49.678;24.560;2023-02-11T06:39:43;28.05;;;13.45;;
45326;SDS011;31062;49.678;24.560;2023-02-11T06:42:29;32.95;;;14.45;;
45326;SDS011;31062;49.678;24.560;2023-02-11T06:45:15;33.17;;;16.40;;
45326;SDS011;31062;49.678;24.560;2023-02-11T06:48:00;31.67;;;15.52;;
45326;SDS011;31062;49.678;24.560;2023-02-11T06:50:46;34.85;;;17.83;;
45326;SDS011;31062;49.678;24.560;2023-02-11T06:53:33;32.25;;;16.13;;
45326;SDS011;31062;49.678;24.560;2023-02-11T06:56:21;46.35;;;19.10;;
45326;SDS011;31062;49.678;24.560;2023-02-11T06:59:11;39.83;;;18.88;;
45326;SDS011;31062;49.678;24.560;2023-02-11T07:02:01;45.80;;;19.10;;
45326;SDS011;31062;49.678;24.560;2023-02-11T07:04:47;37.35;;;17.02;;
45326;SDS011;31062;49.678;24.560;2023-02-11T07:07:34;28.58;;;14.88;;
45326;SDS011;31062;49.678;24.560;2023-02-11T07:10:19;36.05;;;16.38;;
45326;SDS011;31062;49.678;24.560;2023-02-11T07:13:05;33.03;;;16.02;;
45326;SDS011;31062;49.678;24.560;2023-02-11T07:15:50;29.88;;;13.50;;
45326;SDS011;31062;49.678;24.560;2023-02-11T07:18:37;29.02;;;13.90;;
45326;SDS011;31062;49.678;24.560;2023-02-11T07:21:23;25.33;;;12.80;;
45326;SDS011;31062;49.678;24.560;2023-02-11T07:24:08;23.73;;;13.20;;
45326;SDS011;31062;49.678;24.560;2023-02-11T07:26:55;22.30;;;11.48;;
45326;SDS011;31062;49.678;24.560;2023-02-11T07:29:41;24.40;;;11.13;;
45326;SDS011;31062;49.678;24.560;2023-02-11T07:32:27;27.88;;;12.45;;
45326;SDS011;31062;49.678;24.560;2023-02-11T07:35:13;30.25;;;15.07;;
45326;SDS011;31062;49.678;24.560;2023-02-11T07:38:00;20.83;;;12.50;;
45326;SDS011;31062;49.678;24.560;2023-02-11T07:40:45;21.58;;;11.95;;
45326;SDS011;31062;49.678;24.560;2023-02-11T07:43:31;20.40;;;11.77;;
45326;SDS011;31062;49.678;24.560;2023-02-11T07:46:20;25.10;;;11.65;;
45326;SDS011;31062;49.678;24.560;2023-02-11T07:49:07;20.70;;;11.27;;
45326;SDS011;31062;49.678;24.560;2023-02-11T07:51:53;25.30;;;13.13;;
45326;SDS011;31062;49.678;24.560;2023-02-11T07:54:39;19.27;;;9.63;;
45326;SDS011;31062;49.678;24.560;2023-02-11T07:57:24;17.23;;;10.13;;
45326;SDS011;31062;49.678;24.560;2023-02-11T08:00:10;14.93;;;8.70;;
45326;SDS011;31062;49.678;24.560;2023-02-11T08:02:56;21.17;;;12.52;;
45326;SDS011;31062;49.678;24.560;2023-02-11T08:05:42;23.90;;;11.43;;
45326;SDS011;31062;49.678;24.560;2023-02-11T08:08:37;22.30;;;11.23;;
45326;SDS011;31062;49.678;24.560;2023-02-11T08:11:26;23.45;;;11.73;;
45326;SDS011;31062;49.678;24.560;2023-02-11T08:14:13;20.73;;;10.80;;
45326;SDS011;31062;49.678;24.560;2023-02-11T08:16:59;21.25;;;11.82;;
45326;SDS011;31062;49.678;24.560;2023-02-11T08:19:44;23.30;;;11.65;;
45326;SDS011;31062;49.678;24.560;2023-02-11T08:22:31;22.35;;;11.52;;
45326;SDS011;31062;49.678;24.560;2023-02-11T08:25:19;25.70;;;12.73;;
45326;SDS011;31062;49.678;24.560;2023-02-11T08:28:04;22.15;;;11.18;;
45326;SDS011;31062;49.678;24.560;2023-02-11T08:30:50;25.52;;;11.63;;
45326;SDS011;31062;49.678;24.560;2023-02-11T08:33:35;23.60;;;12.02;;
45326;SDS011;31062;49.678;24.560;2023-02-11T08:36:23;23.83;;;11.68;;
45326;SDS011;31062;49.678;24.560;2023-02-11T08:39:17;28.70;;;11.93;;
45326;SDS011;31062;49.678;24.560;2023-02-11T08:42:05;24.30;;;12.25;;
45326;SDS011;31062;49.678;24.560;2023-02-11T08:44:50;23.40;;;12.05;;
45326;SDS011;31062;49.678;24.560;2023-02-11T08:47:36;24.50;;;12.25;;
45326;SDS011;31062;49.678;24.560;2023-02-11T08:50:26;32.20;;;13.52;;
45326;SDS011;31062;49.678;24.560;2023-02-11T08:53:12;28.67;;;15.10;;
45326;SDS011;31062;49.678;24.560;2023-02-11T08:55:58;22.48;;;12.48;;
45326;SDS011;31062;49.678;24.560;2023-02-11T08:58:45;26.13;;;12.82;;
45326;SDS011;31062;49.678;24.560;2023-02-11T09:01:34;25.15;;;12.40;;
45326;SDS011;31062;49.678;24.560;2023-02-11T09:04:25;20.95;;;11.90;;
45326;SDS011;31062;49.678;24.560;2023-02-11T09:07:21;28.85;;;12.70;;
45326;SDS011;31062;49.678;24.560;2023-02-11T09:10:16;22.17;;;12.02;;
45326;SDS011;31062;49.678;24.560;2023-02-11T09:13:03;25.33;;;13.00;;
45326;SDS011;31062;49.678;24.560;2023-02-11T09:15:49;27.10;;;13.40;;
45326;SDS011;31062;49.678;24.560;2023-02-11T09:18:34;22.70;;;11.35;;
45326;SDS011;31062;49.678;24.560;2023-02-11T09:21:23;24.88;;;12.10;;
45326;SDS011;31062;49.678;24.560;2023-02-11T09:24:10;22.73;;;11.10;;
45326;SDS011;31062;49.678;24.560;2023-02-11T09:26:56;22.92;;;12.40;;
45326;SDS011;31062;49.678;24.560;2023-02-11T09:29:44;27.10;;;12.98;;
45326;SDS011;31062;49.678;24.560;2023-02-11T09:32:38;28.25;;;13.05;;
45326;SDS011;31062;49.678;24.560;2023-02-11T09:35:23;25.40;;;12.85;;
45326;SDS011;31062;49.678;24.560;2023-02-11T09:38:10;20.85;;;11.02;;
45326;SDS011;31062;49.678;24.560;2023-02-11T09:40:55;24.02;;;12.75;;
45326;SDS011;31062;49.678;24.560;2023-02-11T09:43:44;27.05;;;14.52;;
45326;SDS011;31062;49.678;24.560;2023-02-11T09:46:36;27.65;;;13.40;;
45326;SDS011;31062;49.678;24.560;2023-02-11T09:49:46;29.13;;;14.52;;
45326;SDS011;31062;49.678;24.560;2023-02-11T09:52:55;25.83;;;12.48;;
45326;SDS011;31062;49.678;24.560;2023-02-11T09:55:42;26.38;;;13.02;;
45326;SDS011;31062;49.678;24.560;2023-02-11T09:58:32;29.63;;;13.13;;
45326;SDS011;31062;49.678;24.560;2023-02-11T10:01:37;28.45;;;13.02;;
45326;SDS011;31062;49.678;24.560;2023-02-11T10:13:31;22.55;;;11.18;;
45326;SDS011;31062;49.678;24.560;2023-02-11T10:22:32;27.23;;;12.25;;
45326;SDS011;31062;49.678;24.560;2023-02-11T10:25:23;27.52;;;13.05;;
45326;SDS011;31062;49.678;24.560;2023-02-11T10:28:18;22.83;;;12.20;;
45326;SDS011;31062;49.678;24.560;2023-02-11T10:31:09;26.73;;;13.43;;
45326;SDS011;31062;49.678;24.560;2023-02-11T10:34:06;36.22;;;16.25;;
45326;SDS011;31062;49.678;24.560;2023-02-11T10:36:54;26.00;;;14.30;;
45326;SDS011;31062;49.678;24.560;2023-02-11T10:39:40;35.78;;;17.95;;
45326;SDS011;31062;49.678;24.560;2023-02-11T10:42:26;30.73;;;13.80;;
45326;SDS011;31062;49.678;24.560;2023-02-11T10:45:24;39.65;;;18.05;;
45326;SDS011;31062;49.678;24.560;2023-02-11T10:51:39;28.23;;;12.48;;
45326;SDS011;31062;49.678;24.560;2023-02-11T10:54:25;26.92;;;13.15;;
45326;SDS011;31062;49.678;24.560;2023-02-11T10:57:15;24.10;;;13.02;;
45326;SDS011;31062;49.678;24.560;2023-02-11T11:00:05;35.38;;;16.55;;
45326;SDS011;31062;49.678;24.560;2023-02-11T11:03:17;27.13;;;15.43;;
45326;SDS011;31062;49.678;24.560;2023-02-11T11:06:07;23.25;;;11.85;;
45326;SDS011;31062;49.678;24.560;2023-02-11T11:08:54;23.80;;;12.77;;
45326;SDS011;31062;49.678;24.560;2023-02-11T11:11:50;24.85;;;11.95;;
45326;SDS011;31062;49.678;24.560;2023-02-11T11:14:37;20.42;;;11.48;;
45326;SDS011;31062;49.678;24.560;2023-02-11T11:17:23;19.20;;;10.63;;
45326;SDS011;31062;49.678;24.560;2023-02-11T11:23:14;35.90;;;15.25;;
45326;SDS011;31062;49.678;24.560;2023-02-11T11:26:09;40.55;;;17.58;;
45326;SDS011;31062;49.678;24.560;2023-02-11T11:29:00;24.40;;;12.35;;
45326;SDS011;31062;49.678;24.560;2023-02-11T11:31:58;24.52;;;12.18;;
45326;SDS011;31062;49.678;24.560;2023-02-11T11:35:22;21.42;;;11.98;;
45326;SDS011;31062;49.678;24.560;2023-02-11T11:38:11;21.77;;;10.82;;
45326;SDS011;31062;49.678;24.560;2023-02-11T11:41:15;24.33;;;11.57;;
45326;SDS011;31062;49.678;24.560;2023-02-11T11:44:11;21.92;;;11.15;;
45326;SDS011;31062;49.678;24.560;2023-02-11T11:50:13;19.40;;;10.10;;
45326;SDS011;31062;49.678;24.560;2023-02-11T11:53:12;22.00;;;10.80;;
45326;SDS011;31062;49.678;24.560;2023-02-11T11:56:40;17.83;;;11.20;;
45326;SDS011;31062;49.678;24.560;2023-02-11T11:59:38;18.63;;;10.68;;
45326;SDS011;31062;49.678;24.560;2023-02-11T12:21:40;16.88;;;10.35;;
45326;SDS011;31062;49.678;24.560;2023-02-11T12:28:26;18.98;;;10.40;;
45326;SDS011;31062;49.678;24.560;2023-02-11T12:31:48;21.25;;;11.85;;
45326;SDS011;31062;49.678;24.560;2023-02-11T12:40:36;14.90;;;9.60;;
45326;SDS011;31062;49.678;24.560;2023-02-11T12:43:41;23.50;;;10.30;;
45326;SDS011;31062;49.678;24.560;2023-02-11T12:46:40;26.30;;;12.30;;
45326;SDS011;31062;49.678;24.560;2023-02-11T12:56:13;19.65;;;10.77;;
45326;SDS011;31062;49.678;24.560;2023-02-11T12:59:07;17.85;;;10.25;;
45326;SDS011;31062;49.678;24.560;2023-02-11T13:02:03;18.70;;;9.23;;
45326;SDS011;31062;49.678;24.560;2023-02-11T13:04:58;17.98;;;11.23;;
45326;SDS011;31062;49.678;24.560;2023-02-11T13:08:03;15.82;;;9.80;;
45326;SDS011;31062;49.678;24.560;2023-02-11T13:11:02;15.10;;;8.63;;
45326;SDS011;31062;49.678;24.560;2023-02-11T13:14:11;18.05;;;10.55;;
45326;SDS011;31062;49.678;24.560;2023-02-11T13:17:12;16.02;;;10.02;;
45326;SDS011;31062;49.678;24.560;2023-02-11T13:20:14;21.13;;;10.73;;
45326;SDS011;31062;49.678;24.560;2023-02-11T13:26:05;14.87;;;9.13;;
45326;SDS011;31062;49.678;24.560;2023-02-11T13:28:56;18.23;;;10.30;;
45326;SDS011;31062;49.678;24.560;2023-02-11T13:31:57;17.35;;;10.05;;
45326;SDS011;31062;49.678;24.560;2023-02-11T13:37:37;17.42;;;10.73;;
45326;SDS011;31062;49.678;24.560;2023-02-11T13:40:25;19.63;;;9.93;;
45326;SDS011;31062;49.678;24.560;2023-02-11T13:43:21;16.42;;;9.13;;
45326;SDS011;31062;49.678;24.560;2023-02-11T13:46:10;18.73;;;10.38;;
45326;SDS011;31062;49.678;24.560;2023-02-11T13:48:57;23.23;;;10.25;;
45326;SDS011;31062;49.678;24.560;2023-02-11T13:51:44;19.27;;;9.93;;
45326;SDS011;31062;49.678;24.560;2023-02-11T13:54:34;19.23;;;10.57;;
45326;SDS011;31062;49.678;24.560;2023-02-11T13:57:33;17.92;;;9.63;;
45326;SDS011;31062;49.678;24.560;2023-02-11T14:03:21;18.90;;;10.05;;
45326;SDS011;31062;49.678;24.560;2023-02-11T14:06:36;16.95;;;9.88;;
45326;SDS011;31062;49.678;24.560;2023-02-11T14:09:52;16.00;;;9.10;;
45326;SDS011;31062;49.678;24.560;2023-02-11T14:13:00;20.50;;;10.55;;
45326;SDS011;31062;49.678;24.560;2023-02-11T14:16:12;14.90;;;9.57;;
45326;SDS011;31062;49.678;24.560;2023-02-11T14:19:29;17.42;;;9.23;;
45326;SDS011;31062;49.678;24.560;2023-02-11T14:22:26;20.08;;;11.18;;
45326;SDS011;31062;49.678;24.560;2023-02-11T14:25:22;19.50;;;10.55;;
45326;SDS011;31062;49.678;24.560;2023-02-11T14:28:15;19.15;;;9.63;;
45326;SDS011;31062;49.678;24.560;2023-02-11T14:31:09;15.23;;;8.50;;
45326;SDS011;31062;49.678;24.560;2023-02-11T14:37:09;20.95;;;9.77;;
45326;SDS011;31062;49.678;24.560;2023-02-11T14:40:08;28.45;;;14.32;;
45326;SDS011;31062;49.678;24.560;2023-02-11T14:43:08;20.17;;;11.77;;
45326;SDS011;31062;49.678;24.560;2023-02-11T14:46:03;19.00;;;10.90;;
45326;SDS011;31062;49.678;24.560;2023-02-11T14:48:51;19.60;;;9.85;;
45326;SDS011;31062;49.678;24.560;2023-02-11T14:51:39;21.02;;;11.07;;
45326;SDS011;31062;49.678;24.560;2023-02-11T14:54:26;21.83;;;11.05;;
45326;SDS011;31062;49.678;24.560;2023-02-11T14:57:14;18.08;;;8.95;;
45326;SDS011;31062;49.678;24.560;2023-02-11T15:00:06;17.02;;;10.57;;
45326;SDS011;31062;49.678;24.560;2023-02-11T15:03:02;21.75;;;10.45;;
45326;SDS011;31062;49.678;24.560;2023-02-11T15:05:52;18.98;;;9.45;;
45326;SDS011;31062;49.678;24.560;2023-02-11T15:08:47;16.70;;;9.75;;
45326;SDS011;31062;49.678;24.560;2023-02-11T15:11:37;17.15;;;9.98;;
45326;SDS011;31062;49.678;24.560;2023-02-11T15:14:26;16.50;;;9.95;;
45326;SDS011;31062;49.678;24.560;2023-02-11T15:17:15;18.00;;;10.20;;
45326;SDS011;31062;49.678;24.560;2023-02-11T15:20:05;17.45;;;9.40;;
45326;SDS011;31062;49.678;24.560;2023-02-11T15:22:56;18.63;;;10.10;;
45326;SDS011;31062;49.678;24.560;2023-02-11T15:25:44;18.67;;;9.90;;
45326;SDS011;31062;49.678;24.560;2023-02-11T15:28:35;15.32;;;9.07;;
45326;SDS011;31062;49.678;24.560;2023-02-11T15:31:21;24.08;;;11.23;;
45326;SDS011;31062;49.678;24.560;2023-02-11T15:34:10;18.60;;;9.57;;
45326;SDS011;31062;49.678;24.560;2023-02-11T15:36:56;19.58;;;9.25;;
45326;SDS011;31062;49.678;24.560;2023-02-11T15:39:42;14.55;;;8.95;;
45326;SDS011;31062;49.678;24.560;2023-02-11T15:42:29;21.92;;;10.70;;
45326;SDS011;31062;49.678;24.560;2023-02-11T15:48:21;20.90;;;9.98;;
45326;SDS011;31062;49.678;24.560;2023-02-11T15:51:21;16.25;;;9.55;;
45326;SDS011;31062;49.678;24.560;2023-02-11T15:54:14;24.17;;;11.55;;
45326;SDS011;31062;49.678;24.560;2023-02-11T15:57:02;25.83;;;11.07;;
45326;SDS011;31062;49.678;24.560;2023-02-11T15:59:52;21.38;;;10.55;;
45326;SDS011;31062;49.678;24.560;2023-02-11T16:02:39;17.77;;;9.57;;
45326;SDS011;31062;49.678;24.560;2023-02-11T16:05:30;18.30;;;10.07;;
45326;SDS011;31062;49.678;24.560;2023-02-11T16:08:21;20.30;;;10.82;;
45326;SDS011;31062;49.678;24.560;2023-02-11T16:11:22;22.65;;;12.00;;
45326;SDS011;31062;49.678;24.560;2023-02-11T16:20:02;20.85;;;9.07;;
45326;SDS011;31062;49.678;24.560;2023-02-11T16:22:49;21.05;;;10.98;;
45326;SDS011;31062;49.678;24.560;2023-02-11T16:25:35;14.82;;;9.13;;
45326;SDS011;31062;49.678;24.560;2023-02-11T16:28:21;19.73;;;10.52;;
45326;SDS011;31062;49.678;24.560;2023-02-11T16:31:06;19.10;;;9.90;;
45326;SDS011;31062;49.678;24.560;2023-02-11T16:33:54;12.65;;;8.25;;
45326;SDS011;31062;49.678;24.560;2023-02-11T16:36:39;15.60;;;8.90;;
45326;SDS011;31062;49.678;24.560;2023-02-11T16:39:29;15.50;;;8.35;;
45326;SDS011;31062;49.678;24.560;2023-02-11T16:42:19;16.38;;;8.30;;
45326;SDS011;31062;49.678;24.560;2023-02-11T16:45:05;18.10;;;9.48;;
45326;SDS011;31062;49.678;24.560;2023-02-11T16:47:50;22.20;;;10.77;;
45326;SDS011;31062;49.678;24.560;2023-02-11T16:50:36;18.08;;;10.38;;
45326;SDS011;31062;49.678;24.560;2023-02-11T16:53:22;23.90;;;10.73;;
45326;SDS011;31062;49.678;24.560;2023-02-11T16:56:13;22.27;;;10.05;;
45326;SDS011;31062;49.678;24.560;2023-02-11T16:59:01;14.90;;;9.45;;
45326;SDS011;31062;49.678;24.560;2023-02-11T17:01:46;19.38;;;9.90;;
45326;SDS011;31062;49.678;24.560;2023-02-11T17:04:34;18.73;;;9.32;;
45326;SDS011;31062;49.678;24.560;2023-02-11T17:07:20;17.52;;;9.20;;
45326;SDS011;31062;49.678;24.560;2023-02-11T17:10:12;19.23;;;10.55;;
45326;SDS011;31062;49.678;24.560;2023-02-11T17:13:07;19.55;;;10.07;;
45326;SDS011;31062;49.678;24.560;2023-02-11T17:15:53;18.67;;;9.82;;
45326;SDS011;31062;49.678;24.560;2023-02-11T17:18:40;19.25;;;10.02;;
45326;SDS011;31062;49.678;24.560;2023-02-11T17:21:27;14.75;;;7.25;;
45326;SDS011;31062;49.678;24.560;2023-02-11T17:24:17;20.38;;;9.65;;
45326;SDS011;31062;49.678;24.560;2023-02-11T17:27:08;20.25;;;9.95;;
45326;SDS011;31062;49.678;24.560;2023-02-11T17:29:59;23.48;;;9.77;;
45326;SDS011;31062;49.678;24.560;2023-02-11T17:32:47;32.42;;;16.50;;
45326;SDS011;31062;49.678;24.560;2023-02-11T17:35:37;22.77;;;11.98;;
45326;SDS011;31062;49.678;24.560;2023-02-11T17:38:26;27.17;;;11.32;;
45326;SDS011;31062;49.678;24.560;2023-02-11T17:41:13;22.33;;;10.73;;
45326;SDS011;31062;49.678;24.560;2023-02-11T17:44:02;30.60;;;12.05;;
45326;SDS011;31062;49.678;24.560;2023-02-11T17:46:50;24.27;;;10.80;;
45326;SDS011;31062;49.678;24.560;2023-02-11T17:49:39;21.55;;;10.90;;
45326;SDS011;31062;49.678;24.560;2023-02-11T17:52:28;22.10;;;11.05;;
45326;SDS011;31062;49.678;24.560;2023-02-11T17:55:17;19.98;;;10.93;;
45326;SDS011;31062;49.678;24.560;2023-02-11T17:58:08;25.13;;;13.95;;
45326;SDS011;31062;49.678;24.560;2023-02-11T18:00:57;21.80;;;11.18;;
45326;SDS011;31062;49.678;24.560;2023-02-11T18:03:47;25.58;;;11.13;;
45326;SDS011;31062;49.678;24.560;2023-02-11T18:06:37;25.40;;;12.10;;
45326;SDS011;31062;49.678;24.560;2023-02-11T18:09:27;15.00;;;9.80;;
45326;SDS011;31062;49.678;24.560;2023-02-11T18:12:20;13.90;;;8.32;;
45326;SDS011;31062;49.678;24.560;2023-02-11T18:15:15;22.73;;;11.48;;
45326;SDS011;31062;49.678;24.560;2023-02-11T18:18:08;18.92;;;10.40;;
45326;SDS011;31062;49.678;24.560;2023-02-11T18:21:04;15.73;;;9.95;;
45326;SDS011;31062;49.678;24.560;2023-02-11T18:26:54;11.40;;;7.95;;